To NAV CANADA Home Page Login to a new session Search on AWWS site Feedback and Comments Disclaimer Vers la page française équivalente Tips FAQ What's new on the site To the Forecasts and Observations / NOTAM section To "File a Flight Plan" website Publications and other links Update of the User's profile FIC Telephone Numbers My Weather Data Folder Route Weather Data Regional Weather Data Local Weather Data To the Forecasts and Observations / NOTAM section
Request Generated 04/30/2017 at 05:11:08 UTC . Weather information available at that time is displayed.


Save this request

METAR/TAF

KAMLOOPS/BC    

METAR CYKA 300500Z 10008KT 40SM FEW110 OVC150 07/03 A2994 RMK AC2AC6
SLP148=
METAR CYKA 300400Z 11014KT 40SM SCT120 OVC160 08/04 A2994 RMK AC4AC4
SLP148=
METAR CYKA 300300Z 11011G17KT 40SM FEW090 OVC160 08/03 A2995 RMK
AC2AC6 SLP154=

TAF CYKA 300038Z 3001/3013 12012KT P6SM FEW050 BKN080 TEMPO 3001/3006
P6SM -SHRA BKN050
FM300600 24007KT P6SM BKN080
RMK NXT FCST BY 300700Z=

CLINTON BC/AUTO OBS    

CWCL - METAR not available

CWCL - No TAF is issued for this station

LYTTON BC/OBS    (show WxCam)

METAR CWLY 300500Z AUTO 20011G25KT 170V240 9SM OVC085 09/03 A2996 RMK
SLP149=
METAR CWLY 300400Z AUTO 21018G29KT 130V240 9SM OVC085 09/03 A2995 RMK
SLP147=
METAR CWLY 300300Z AUTO 21013G28KT 120V240 9SM OVC085 10/03 A2995 RMK
SLP149=

CWLY - No TAF is issued for this station

CLINTON/BLEIBLER RANCH/BC    (show WxCam)

METAR CYIN 300500Z AUTO 21010G18KT 9SM OVC150 04/M03 A2983 RMK
SLP120=
SPECI CYIN 300444Z AUTO 22011G17KT 9SM OVC150 05/M03 A2983 RMK WSHFT
AT 0430Z SLP119=
METAR CYIN 300400Z AUTO VRB06KT 9SM FEW090 OVC160 05/M04 A2982 RMK
SLP118=
METAR CYIN 300300Z AUTO 11008KT 9SM BKN090 05/M02 A2983 RMK SLP121=

CYIN - No TAF is issued for this station



Your time UTC time
Weather data provided by Environment Canada and NAV CANADA